Data for 04/08/2014

Time Sea-Level Adjusted Pressure Absolute Pressure Temperature Relative Humidity Dew Point   
(mb) (inHg) (mb) (inHg) (C) (F) (%) (C) (F)
00:05 1023 30.21 853 25.19 5.2 41.3 57 -2.5 27.5
00:10 1023 30.21 853 25.19 5.4 41.6 57 -2.5 27.5
00:15 1023 30.21 853 25.19 5.5 41.9 57 -2.3 27.9
00:20 1023 30.21 852 25.16 5.3 41.5 58 -2.4 27.7
00:25 1023 30.21 852 25.16 5 41.1 58 -2.6 27.3
00:30 1023 30.21 852 25.16 4.9 40.7 58 -2.6 27.3
00:35 1023 30.21 852 25.16 4.8 40.6 59 -2.6 27.3
00:40 1023 30.21 852 25.16 4.8 40.6 59 -2.6 27.4
00:45 1023 30.21 852 25.16 4.7 40.5 59 -2.7 27.2
00:50 1023 30.21 852 25.16 4.6 40.3 58 -2.9 26.9
00:55 1023 30.21 852 25.16 4.7 40.5 59 -2.7 27.2
01:00 1023 30.21 852 25.16 4.5 40 60 -2.5 27.4
01:05 1023 30.21 852 25.16 4.2 39.5 61 -2.6 27.4
01:10 1023 30.21 852 25.16 4 39.2 62 -2.6 27.3
01:15 1023 30.21 852 25.16 3.8 38.8 63 -2.5 27.5
01:20 1023 30.21 852 25.16 3.6 38.5 64 -2.6 27.3
01:25 1023 30.21 852 25.16 3.5 38.4 64 -2.7 27.1
01:30 1023 30.21 852 25.16 3.6 38.5 63 -2.7 27.1
01:35 1023 30.21 852 25.16 4 39.2 61 -2.8 26.9
01:40 1023 30.21 852 25.16 4.5 40.1 58 -3.1 26.5
01:45 1023 30.21 852 25.16 5 41.1 57 -2.9 26.8
01:50 1023 30.21 852 25.16 5.1 41.2 56 -2.8 26.9
01:55 1023 30.21 852 25.16 4.9 40.9 58 -2.6 27.2
02:00 1023 30.21 852 25.16 4.7 40.5 58 -2.8 27
02:05 1023 30.21 852 25.16 4.5 40.2 60 -2.6 27.2
02:10 1023 30.21 852 25.16 4.2 39.6 61 -2.7 27.1
02:15 1023 30.21 852 25.16 4.1 39.5 61 -2.7 27.1
02:20 1023 30.21 852 25.16 4.1 39.4 60 -2.9 26.8
02:25 1023 30.21 852 25.16 4.2 39.6 60 -2.8 26.9
02:30 1023 30.21 852 25.16 4.2 39.5 60 -2.9 26.8
02:35 1023 30.21 852 25.16 4.2 39.5 61 -2.6 27.2
02:40 1023 30.21 852 25.16 3.3 37.9 65 -2.7 27.1
02:45 1023 30.21 852 25.16 3.6 38.5 62 -2.9 26.8
02:50 1023 30.21 852 25.16 3.5 38.3 63 -2.9 26.7
02:55 1023 30.21 852 25.16 3.6 38.4 63 -2.9 26.8
03:00 1023 30.21 852 25.16 3.3 38 63 -3 26.7
03:05 1023 30.21 852 25.16 3.3 38 64 -2.9 26.8
03:10 1023 30.21 852 25.16 3.1 37.5 65 -2.9 26.7
03:15 1023 30.21 852 25.16 2.9 37.2 65 -3.1 26.5
03:20 1023 30.21 852 25.16 2.9 37.2 65 -3 26.5
03:25 1023 30.21 852 25.16 3.2 37.8 64 -2.8 26.9
03:30 1023 30.21 852 25.16 3.4 38.2 62 -3.3 26.1
03:35 1023 30.21 852 25.16 3.4 38 63 -3 26.7
03:40 1023 30.21 852 25.16 3.6 38.4 59 -3.6 25.5
03:45 1023 30.21 852 25.16 3.9 39.1 60 -3.1 26.3
03:50 1023 30.21 852 25.16 3.6 38.5 60 -3.4 25.8
03:55 1023 30.21 852 25.16 3.7 38.7 59 -3.5 25.7
04:00 1023 30.21 852 25.16 3.5 38.3 62 -3 26.5
04:05 1023 30.21 852 25.16 3 37.3 63 -3.4 25.9
04:10 1023 30.21 852 25.16 3.1 37.6 63 -3.4 25.9
04:15 1023 30.21 852 25.16 2.5 36.4 66 -3.2 26.2
04:20 1023 30.21 852 25.16 2 35.6 66 -3.7 25.4
04:25 1023 30.21 852 25.16 2.2 36 66 -3.5 25.6
04:30 1023 30.21 852 25.16 2.4 36.3 65 -3.5 25.7
04:35 1023 30.21 852 25.16 2.6 36.8 65 -3.3 26
04:40 1023 30.21 852 25.16 2.2 35.9 66 -3.4 25.8
04:45 1023 30.21 852 25.16 1.9 35.4 67 -3.6 25.6
04:50 1023 30.21 852 25.16 1.9 35.4 67 -3.7 25.4
04:55 1023 30.21 852 25.16 2.1 35.8 65 -3.8 25.2
05:00 1023 30.21 852 25.16 2.4 36.3 63 -4 24.9
05:05 1023 30.21 852 25.16 2.6 36.6 63 -3.8 25.1
05:10 1023 30.21 852 25.16 2.7 36.9 63 -3.7 25.3
05:15 1023 30.21 852 25.16 2.4 36.2 65 -3.6 25.6
05:20 1023 30.21 852 25.16 1.9 35.5 66 -3.8 25.2
05:25 1023 30.21 852 25.16 2.1 35.8 65 -3.8 25.1
05:30 1023 30.21 852 25.16 2.2 35.9 64 -3.9 24.9
05:35 1023 30.21 852 25.16 2.3 36.2 64 -3.8 25.2
05:40 1022 30.18 852 25.16 2.2 35.9 65 -3.8 25.1
05:45 1022 30.18 852 25.16 2 35.6 65 -3.8 25.1
05:50 1023 30.21 852 25.16 2 35.6 65 -3.9 24.9
05:55 1023 30.21 852 25.16 2.3 36.2 63 -4 24.8
06:00 1022 30.18 852 25.16 2.3 36.2 63 -4 24.8
06:05 1022 30.18 852 25.16 2.4 36.3 63 -4 24.8
06:10 1022 30.18 852 25.16 2.5 36.5 63 -3.8 25.1
06:15 1022 30.18 852 25.16 2.7 36.8 61 -4 24.7
06:20 1022 30.18 852 25.16 3 37.4 60 -3.9 25
06:25 1022 30.18 852 25.16 3 37.4 61 -3.8 25.1
06:30 1022 30.18 852 25.16 2.7 36.9 62 -3.9 25
06:35 1022 30.18 852 25.16 2.4 36.2 64 -3.8 25.2
06:40 1022 30.18 852 25.16 2 35.6 64 -4.2 24.4
06:45 1022 30.18 852 25.16 2.4 36.3 61 -4.4 24.2
06:50 1022 30.18 852 25.16 3.1 37.5 58 -4.4 24.1
06:55 1022 30.18 852 25.16 4 39.2 55 -4.1 24.6
07:00 1023 30.21 852 25.16 4.3 39.8 55 -4 24.9
07:05 1023 30.21 852 25.16 4.4 39.8 54 -4.1 24.6
07:10 1023 30.21 852 25.16 4.4 40 55 -3.9 24.9
07:15 1023 30.21 852 25.16 4.6 40.3 55 -3.7 25.3
07:20 1023 30.21 852 25.16 4.7 40.5 55 -3.5 25.7
07:25 1023 30.21 852 25.16 4.8 40.6 56 -3.3 26
07:30 1023 30.21 852 25.16 4.9 40.9 56 -3.2 26.3
07:35 1023 30.21 852 25.16 5 41 55 -3.3 26.1
07:40 1023 30.21 852 25.16 5.2 41.4 54 -3.4 26
07:45 1023 30.21 852 25.16 5.6 42 53 -3.3 26
07:50 1023 30.21 852 25.16 6 42.8 51 -3.3 26
07:55 1023 30.21 852 25.16 6.4 43.5 50 -3.3 26.1
08:00 1023 30.21 852 25.16 6.6 43.9 49 -3.3 26.1
08:05 1023 30.21 852 25.16 6.8 44.2 49 -3.2 26.3
08:10 1023 30.21 852 25.16 7 44.6 49 -3.1 26.4
08:15 1023 30.21 852 25.16 7.3 45.2 47 -3.1 26.4
08:20 1023 30.21 852 25.16 7.4 45.4 46 -3.4 25.9
08:25 1023 30.21 852 25.16 7.4 45.3 45 -3.6 25.5
08:30 1023 30.21 852 25.16 7.6 45.7 45 -3.6 25.5
08:35 1023 30.21 852 25.16 8 46.4 44 -3.5 25.7
08:40 1023 30.21 852 25.16 8.4 47 43 -3.4 25.9
08:45 1023 30.21 852 25.16 8.6 47.4 41 -3.9 25
08:50 1023 30.21 852 25.16 8.8 47.9 39 -4.2 24.4
08:55 1023 30.21 852 25.16 9 48.1 39 -4.1 24.5
09:00 1023 30.21 852 25.16 9.2 48.5 39 -4.1 24.6
09:05 1023 30.21 852 25.16 9.6 49.2 37 -4.3 24.2
09:10 1023 30.21 852 25.16 9.9 49.9 38 -3.8 25.2
09:15 1023 30.21 852 25.16 9.9 49.8 37 -4.2 24.5
09:20 1023 30.21 852 25.16 10.4 50.7 36 -4 24.8
09:25 1023 30.21 852 25.16 11.2 52.1 34 -4.1 24.6
09:30 1023 30.21 852 25.16 11.5 52.7 33 -4.3 24.3
09:35 1023 30.21 852 25.16 11.7 53.1 33 -4.1 24.6
09:40 1023 30.21 852 25.16 12.1 53.7 31 -4.4 24.2
09:45 1023 30.21 852 25.16 12.8 55.1 31 -4 24.8
09:50 1023 30.21 852 25.16 12.9 55.1 30 -4.1 24.6
09:55 1022 30.18 852 25.16 13.6 56.5 29 -4.2 24.4
10:00 1022 30.18 852 25.16 13.6 56.5 29 -4.1 24.6
10:05 1022 30.18 852 25.16 14.1 57.4 27 -4.4 24.1
10:10 1022 30.18 852 25.16 14.5 58.1 27 -4.1 24.6
10:15 1022 30.18 852 25.16 15.1 59.2 28 -3.2 26.3
10:20 1022 30.18 851 25.13 14.6 58.3 29 -3.1 26.4
10:25 1022 30.18 851 25.13 13.4 56.2 30 -3.7 25.3
10:30 1022 30.18 851 25.13 13.6 56.5 30 -3.7 25.4
10:35 1022 30.18 851 25.13 14.1 57.4 30 -3.4 26
10:40 1022 30.18 851 25.13 14.3 57.7 27 -4.2 24.4
10:45 1022 30.18 851 25.13 15.4 59.7 28 -3 26.5
10:50 1022 30.18 851 25.13 14.5 58.1 28 -3.8 25.2
10:55 1022 30.18 851 25.13 15.8 60.4 26 -3.8 25.1
11:00 1022 30.18 851 25.13 16.1 61 26 -3.3 26.1
11:05 1022 30.18 851 25.13 16.7 62 25 -3.3 26.1
11:10 1022 30.18 851 25.13 15.9 60.6 26 -3.4 25.8
11:15 1022 30.18 851 25.13 16.3 61.3 27 -2.5 27.4
11:20 1022 30.18 851 25.13 16.8 62.2 25 -3.2 26.3
11:25 1022 30.18 851 25.13 17.6 63.7 24 -3 26.6
11:30 1022 30.18 851 25.13 17.7 63.8 25 -2.6 27.4
11:35 1022 30.18 851 25.13 17 62.6 26 -2.7 27.1
11:40 1021 30.15 851 25.13 17.1 62.8 25 -3.2 26.2
11:45 1021 30.15 851 25.13 18.1 64.6 24 -2.9 26.8
11:50 1021 30.15 851 25.13 18.2 64.7 24 -2.6 27.4
11:55 1021 30.15 850 25.1 16.8 62.3 26 -2.9 26.8
12:00 1021 30.15 850 25.1 17.2 62.9 24 -3.6 25.5
12:05 1021 30.15 850 25.1 18.3 64.9 23 -3.1 26.4
12:10 1021 30.15 850 25.1 18.7 65.7 23 -2.6 27.3
12:15 1021 30.15 850 25.1 18.8 65.9 22 -3 26.5
12:20 1021 30.15 850 25.1 18 64.3 23 -3.3 26
12:25 1021 30.15 850 25.1 18.1 64.6 24 -2.8 26.9
12:30 1021 30.15 850 25.1 18.4 65 23 -3 26.6
12:35 1021 30.15 850 25.1 18.7 65.6 22 -3.3 26
12:40 1021 30.15 850 25.1 19.1 66.4 21 -3.5 25.7
12:45 1021 30.15 850 25.1 19.9 67.8 18 -4.8 23.4
12:50 1020 30.12 850 25.1 20.4 68.7 19 -3.8 25.2
12:55 1020 30.12 850 25.1 20.3 68.5 16 -6.6 20.1
13:00 1020 30.12 849 25.07 19.1 66.3 18 -5.8 21.6
13:05 1020 30.12 849 25.07 19 66.1 18 -6.1 21.1
13:10 1020 30.12 849 25.07 18.6 65.5 17 -7 19.4
13:15 1020 30.12 849 25.07 18.8 65.9 17 -6.6 20.1
13:20 1020 30.12 849 25.07 18.7 65.7 17 -6.4 20.5
13:25 1020 30.12 849 25.07 18.9 65.9 16 -7.1 19.2
13:30 1020 30.12 849 25.07 18.3 65 17 -6.8 19.8
13:35 1020 30.12 849 25.07 18.6 65.6 18 -6.2 20.8
13:40 1020 30.12 849 25.07 19.4 66.8 15 -7.5 18.6
13:45 1020 30.12 849 25.07 19.4 66.9 17 -6.6 20.2
13:50 1020 30.12 849 25.07 19.3 66.8 15 -7.5 18.5
13:55 1020 30.12 849 25.07 19.7 67.4 17 -5.6 21.9
14:00 1019 30.09 849 25.07 19.8 67.7 15 -7.3 18.9
14:05 1019 30.09 848 25.04 19.3 66.8 15 -7.5 18.5
14:10 1019 30.09 848 25.04 19 66.1 16 -7.7 18.2
14:15 1019 30.09 848 25.04 18.9 66.1 15 -7.9 17.8
14:20 1019 30.09 848 25.04 19.2 66.5 15 -8.3 17
14:25 1019 30.09 848 25.04 19.3 66.8 15 -7.7 18.2
14:30 1019 30.09 848 25.04 18.8 65.8 16 -7.9 17.8
14:35 1019 30.09 848 25.04 18.8 65.9 15 -8.1 17.5
14:40 1019 30.09 848 25.04 18.9 65.9 15 -8 17.6
14:45 1019 30.09 848 25.04 19.3 66.7 15 -8 17.6
14:50 1019 30.09 848 25.04 19.1 66.4 16 -7.2 19
14:55 1019 30.09 848 25.04 19.5 67.1 15 -7.5 18.4
15:00 1019 30.09 848 25.04 19.6 67.3 15 -7.4 18.7
15:05 1018 30.06 848 25.04 19.7 67.5 16 -6.7 20
15:10 1018 30.06 848 25.04 19.7 67.5 15 -7.7 18.1
15:15 1018 30.06 848 25.04 19.6 67.2 14 -8.1 17.4
15:20 1018 30.06 848 25.04 19.5 67 15 -8 17.6
15:25 1018 30.06 847 25.01 19.3 66.8 15 -8.2 17.3
15:30 1018 30.06 847 25.01 19.6 67.3 15 -7.6 18.2
15:35 1018 30.06 847 25.01 19.7 67.4 15 -7.8 17.9
15:40 1018 30.06 847 25.01 19.1 66.4 15 -7.8 17.9
15:45 1018 30.06 847 25.01 19.7 67.4 15 -7.5 18.6
15:50 1018 30.06 847 25.01 19.7 67.5 15 -7.7 18.1
15:55 1018 30.06 847 25.01 19.5 67 14 -8.6 16.5
16:00 1018 30.06 847 25.01 19.2 66.6 14 -8.5 16.7
16:05 1018 30.06 847 25.01 19.4 67 15 -7.8 18
16:10 1018 30.06 847 25.01 19.4 67 15 -7.5 18.5
16:15 1018 30.06 847 25.01 19.3 66.8 16 -7.4 18.8
16:20 1018 30.06 847 25.01 19.7 67.5 15 -7.3 18.8
16:25 1018 30.06 847 25.01 19.6 67.2 15 -7.5 18.5
16:30 1017 30.03 847 25.01 19.4 66.8 15 -7.5 18.4
16:35 1017 30.03 847 25.01 19.5 67.2 15 -7.5 18.6
16:40 1017 30.03 847 25.01 19.9 67.9 15 -7.1 19.3
16:45 1017 30.03 847 25.01 19.7 67.4 17 -6.2 20.9
16:50 1017 30.03 847 25.01 19.3 66.7 17 -6.6 20.1
16:55 1017 30.03 847 25.01 19.3 66.7 17 -5.9 21.3
17:00 1017 30.03 847 25.01 19.3 66.8 17 -6.1 21
17:05 1017 30.03 847 25.01 19.1 66.4 18 -5.9 21.4
17:10 1017 30.03 847 25.01 19 66.1 18 -5.4 22.2
17:15 1017 30.03 847 25.01 18.8 65.8 19 -5.3 22.5
17:20 1017 30.03 847 25.01 18.6 65.5 20 -4.8 23.4
17:25 1017 30.03 847 25.01 18.4 65.1 20 -5.2 22.7
17:30 1017 30.03 847 25.01 18.1 64.6 21 -4.5 23.8
17:35 1017 30.03 847 25.01 17.7 63.8 22 -4 24.8
17:40 1017 30.03 846 24.98 17.3 63.1 22 -4.3 24.2
17:45 1017 30.03 846 24.98 17.1 62.7 23 -4.3 24.2
17:50 1017 30.03 846 24.98 17.1 62.7 23 -3.8 25.1
17:55 1017 30.03 846 24.98 17 62.6 23 -3.9 25
18:00 1017 30.03 846 24.98 16.8 62.2 24 -3.8 25.2
18:05 1017 30.03 846 24.98 16.6 61.9 25 -3.6 25.5
18:10 1017 30.03 846 24.98 16.3 61.4 26 -3.2 26.2
18:15 1017 30.03 846 24.98 16.1 60.9 25 -3.7 25.4
18:20 1017 30.03 846 24.98 16.1 60.9 25 -3.8 25.2
18:25 1017 30.03 846 24.98 16.1 61 25 -3.8 25.2
18:30 1017 30.03 846 24.98 16.1 60.9 25 -3.6 25.5
18:35 1017 30.03 846 24.98 16 60.7 25 -3.8 25.1
18:40 1017 30.03 846 24.98 15.8 60.5 26 -3.7 25.4
18:45 1017 30.03 846 24.98 15.7 60.2 26 -3.8 25.2
18:50 1017 30.03 846 24.98 15.4 59.8 27 -3.6 25.5
18:55 1017 30.03 846 24.98 15.2 59.4 27 -3.7 25.3
19:00 1017 30.03 846 24.98 15.1 59.1 27 -4 24.9
19:05 1017 30.03 846 24.98 15 59.1 25 -4.5 23.9
19:10 1017 30.03 846 24.98 15.1 59.2 25 -4.8 23.4
19:15 1017 30.03 846 24.98 14.3 57.8 29 -3.4 25.9
19:20 1017 30.03 846 24.98 13.7 56.6 27 -4.8 23.3
19:25 1017 30.03 846 24.98 14.1 57.4 27 -4.5 23.9
19:30 1017 30.03 846 24.98 13.7 56.7 28 -4.2 24.5
19:35 1017 30.03 846 24.98 13.5 56.3 28 -4.5 23.8
19:40 1017 30.03 846 24.98 13.2 55.7 30 -4 24.8
19:45 1017 30.03 846 24.98 12.6 54.6 31 -4.2 24.4
19:50 1017 30.03 846 24.98 12.5 54.4 30 -4.6 23.7
19:55 1017 30.03 846 24.98 12.5 54.5 31 -4.1 24.7
20:00 1017 30.03 846 24.98 12.1 53.8 32 -4.1 24.5
20:05 1017 30.03 846 24.98 11.9 53.5 32 -4.2 24.4
20:10 1017 30.03 846 24.98 11.7 53.1 32 -4.6 23.7
20:15 1017 30.03 846 24.98 11.8 53.3 33 -3.8 25.2
20:20 1017 30.03 846 24.98 11 51.7 36 -3.4 25.8
20:25 1017 30.03 846 24.98 10.5 50.9 36 -3.9 25
20:30 1017 30.03 846 24.98 10.5 50.9 35 -4.2 24.5
20:35 1017 30.03 846 24.98 10.7 51.3 35 -4 24.8
20:40 1017 30.03 846 24.98 10.9 51.5 35 -4 24.8
20:45 1017 30.03 846 24.98 10.9 51.7 35 -4 24.9
20:50 1017 30.03 846 24.98 10.4 50.7 37 -3.8 25.2
20:55 1017 30.03 846 24.98 10.2 50.4 35 -4.4 24.2
21:00 1017 30.03 846 24.98 10.5 50.9 36 -3.9 24.9
21:05 1017 30.03 846 24.98 10.3 50.5 37 -3.9 25
21:10 1017 30.03 846 24.98 10.3 50.5 37 -3.8 25.2
21:15 1016 30 846 24.98 10 50.1 36 -4.2 24.5
21:20 1016 30 846 24.98 10.6 51.1 33 -5.2 22.7
21:25 1016 30 846 24.98 11.3 52.3 33 -4.5 23.9
21:30 1016 30 845 24.95 11.1 52.1 33 -4.5 24
21:35 1016 30 845 24.95 10.9 51.7 33 -4.9 23.2
21:40 1016 30 845 24.95 11 51.8 34 -4.3 24.3
21:45 1016 30 845 24.95 10.7 51.3 35 -3.9 24.9
21:50 1016 30 845 24.95 10.6 51 33 -5 23
21:55 1016 30 845 24.95 11.3 52.4 30 -5.5 22
22:00 1016 30 845 24.95 12.2 54 29 -5.5 22.2
22:05 1016 30 845 24.95 12.5 54.5 29 -4.9 23.1
22:10 1016 30 845 24.95 12.3 54.1 30 -4.9 23.1
22:15 1016 30 845 24.95 12 53.5 31 -4.7 23.6
22:20 1016 30 845 24.95 11.2 52.2 35 -3.5 25.7
22:25 1016 30 845 24.95 9.6 49.2 39 -3.8 25.1
22:30 1016 30 845 24.95 9.1 48.4 38 -4.3 24.2
22:35 1016 30 845 24.95 9.3 48.7 38 -4.3 24.2
22:40 1016 30 845 24.95 9.6 49.2 37 -4.5 23.8
22:45 1016 30 845 24.95 9.9 49.8 36 -4.5 23.9
22:50 1016 30 845 24.95 10.6 51.1 33 -5 23
22:55 1016 30 845 24.95 11.2 52.2 33 -4.4 24
23:00 1016 30 845 24.95 11.4 52.6 32 -4.7 23.6
23:05 1016 30 845 24.95 11.7 53 31 -4.7 23.5
23:10 1016 30 845 24.95 12.1 53.8 29 -5.2 22.6
23:15 1016 30 845 24.95 12.8 55 29 -4.9 23.1
23:20 1016 30 845 24.95 12.7 54.9 29 -4.9 23.1
23:25 1016 30 845 24.95 12.9 55.3 28 -4.9 23.1
23:30 1016 30 845 24.95 13 55.4 28 -4.8 23.3
23:35 1016 30 845 24.95 12.9 55.2 29 -4.8 23.4
23:40 1016 30 845 24.95 12.8 55 29 -4.8 23.4
23:45 1016 30 845 24.95 12.7 54.8 30 -4.6 23.8
23:50 1016 30 845 24.95 12.4 54.3 30 -4.6 23.7
23:55 1016 30 845 24.95 12.3 54.2 30 -4.6 23.7
24:00 1016 30 845 24.95 12.2 54 31 -4.6 23.8